logo tempoitalia

Diretta Meteo Tanger Aerodrome, Maroccolunedì 31 agosto ore 06:00

Mappa
Sereno 21 °C Sereno 24 Ore: T.min 20 T.max 33
Ponente Est Km/h 7.4 Punto di rugiada: 16 °C Umidità: 73% Visibilità: 10 Km
Il sole sorge alle: 06:54 Il sole tramonta alle: 19:52
31 Agosto 2026 06:00 tempo osservato: Sereno Sereno 21 73 1015 vento: Nord E 7.4
31 Agosto 2026 05:30 tempo osservato: Sereno Sereno 21 73 1015 vento: Nord E/SE 7.4
31 Agosto 2026 05:00 tempo osservato: Sereno Sereno 22 73 1015 vento: Nord E/SE 9.3
31 Agosto 2026 04:30 tempo osservato: Sereno Sereno 21 82 1015 vento: Nord E 11.1
31 Agosto 2026 04:00 tempo osservato: Sereno Sereno 21 82 1015 vento: Nord E 11.1
31 Agosto 2026 03:30 tempo osservato: Sereno Sereno 22 78 1015 vento: Nord N 1.8
31 Agosto 2026 03:00 tempo osservato: Sereno Sereno 23 64 1015 vento: Nord N 3.7
31 Agosto 2026 02:30 tempo osservato: Sereno Sereno 23 53 1015 vento: Nord E/SE 7.4
31 Agosto 2026 02:00 tempo osservato: Sereno Sereno 23 49 1016 vento: Nord E/SE 7.4
31 Agosto 2026 01:30 tempo osservato: Sereno Sereno 23 49 1016 vento: Nord N 5.5
31 Agosto 2026 01:00 tempo osservato: Sereno Sereno 23 53 1016 vento: Nord N 1.8
31 Agosto 2026 00:30 tempo osservato: Sereno Sereno 23 53 1016 vento: Nord N 1.8
31 Agosto 2026 00:00 tempo osservato: Sereno Sereno 24 47 1016 vento: Nord N 1.8
30 Agosto 2026 23:30 tempo osservato: Sereno Sereno 24 43 1016 vento: Nord N 1.8
30 Agosto 2026 23:00 tempo osservato: Sereno Sereno 24 47 1016 vento: Nord N 3.7
30 Agosto 2026 22:30 tempo osservato: Sereno Sereno 25 44 1016 vento: Nord N/NE 11.1
30 Agosto 2026 22:00 tempo osservato: Sereno Sereno 25 47 1016 vento: Nord NE 11.1
30 Agosto 2026 21:30 tempo osservato: Sereno Sereno 25 50 1015 vento: Nord NE 20.3
30 Agosto 2026 21:00 tempo osservato: Sereno Sereno 26 44 1015 vento: Nord NE 14.8
30 Agosto 2026 20:30 tempo osservato: Sereno Sereno 26 44 1015 vento: Nord NE 13
30 Agosto 2026 20:00 tempo osservato: Sereno Sereno 26 44 1015 vento: Nord N/NE 11.1
30 Agosto 2026 19:30 tempo osservato: Sereno Sereno 27 44 1015 vento: Nord N 16.7
30 Agosto 2026 19:00 tempo osservato: Sereno Sereno 28 45 1014 vento: Nord N 14.8
30 Agosto 2026 18:30 tempo osservato: Sereno Sereno 28 45 1014 vento: Nord N/NO 20.3
30 Agosto 2026 18:00 tempo osservato: Sereno Sereno 28 48 1014 vento: Nord N/NO 22.2
30 Agosto 2026 17:30 tempo osservato: Sereno Sereno 29 42 1014 vento: Nord N/NO 14.8
30 Agosto 2026 17:00 tempo osservato: Sereno Sereno 33 29 1014 vento: Nord NE 18.5
30 Agosto 2026 16:30 tempo osservato: Sereno Sereno 32 31 1014 vento: Nord NE 25.9
30 Agosto 2026 16:00 tempo osservato: Sereno Sereno 32 31 1014 vento: Nord NE 24
30 Agosto 2026 15:30 tempo osservato: Sereno Sereno 33 29 1014 vento: Nord NE 24
30 Agosto 2026 15:00 tempo osservato: Sereno Sereno 32 33 1015 vento: Nord N/NE 24
30 Agosto 2026 14:30 tempo osservato: Sereno Sereno 32 35 1015 vento: Nord N/NE 20.3
30 Agosto 2026 14:00 tempo osservato: Sereno Sereno 31 35 1015 vento: Nord NE 22.2
30 Agosto 2026 13:30 tempo osservato: Sereno Sereno 31 35 1015 vento: Nord E/NE 16.7
30 Agosto 2026 13:00 tempo osservato: Sereno Sereno 32 29 1016 vento: Nord NE 7.4
30 Agosto 2026 12:30 tempo osservato: Sereno Sereno 31 31 1016 vento: Nord O 9.3
30 Agosto 2026 12:00 tempo osservato: Sereno Sereno 31 31 1016 vento: Nord E/SE 7.4
30 Agosto 2026 11:30 tempo osservato: Sereno Sereno 30 30 1016 vento: Nord E/NE 9.3
30 Agosto 2026 11:00 tempo osservato: Sereno Sereno 29 37 1016 vento: Nord N 5.5
30 Agosto 2026 10:30 tempo osservato: Sereno Sereno 28 37 1016 vento: Nord E/NE 7.4
30 Agosto 2026 10:00 tempo osservato: Sereno Sereno 27 36 1016 vento: Nord E/NE 9.3
30 Agosto 2026 09:30 tempo osservato: Sereno Sereno 26 47 1016 vento: Nord N 5.5
30 Agosto 2026 09:00 tempo osservato: Sereno Sereno 24 60 1016 vento: Nord E 7.4
30 Agosto 2026 08:30 tempo osservato: Sereno Sereno 23 68 1016 vento: Nord E 9.3
30 Agosto 2026 08:00 tempo osservato: Sereno Sereno 21 82 1016 vento: Nord E 7.4
30 Agosto 2026 07:30 tempo osservato: Sereno Sereno 20 82 1015 vento: Nord E 7.4
30 Agosto 2026 07:00 tempo osservato: Sereno Sereno 20 82 1015 vento: Nord E 7.4